createdAt,value
2022-10-27T00:01:19.905Z,4.63
2022-10-27T00:06:30.905Z,5.22
2022-10-27T00:08:57.323Z,5.43
2022-10-27T00:11:23.887Z,4.95
2022-10-27T00:13:50.615Z,5.40
2022-10-27T00:16:19.945Z,5.40
2022-10-27T00:18:46.696Z,5.47
2022-10-27T00:21:15.463Z,4.78
2022-10-27T00:23:42.204Z,5.03
2022-10-27T00:26:11.268Z,5.78
2022-10-27T00:28:39.095Z,4.15
2022-10-27T00:31:13.430Z,5.65
2022-10-27T00:33:40.752Z,5.32
2022-10-27T00:36:17.082Z,4.60
2022-10-27T00:38:46.354Z,4.93
2022-10-27T00:41:31.680Z,5.10
2022-10-27T00:43:59.782Z,4.97
2022-10-27T00:46:43.797Z,5.40
2022-10-27T00:49:14.559Z,6.22
2022-10-27T00:51:52.285Z,5.68
2022-10-27T00:54:19.803Z,6.00
2022-10-27T00:56:47.508Z,5.85
2022-10-27T00:59:14.718Z,6.28
2022-10-27T01:01:41.854Z,6.50
2022-10-27T01:04:09.172Z,5.72
2022-10-27T01:06:35.888Z,5.95
2022-10-27T01:09:05.671Z,5.70
2022-10-27T01:11:32.160Z,5.63
2022-10-27T01:13:58.971Z,5.07
2022-10-27T01:16:38.813Z,4.47
2022-10-27T01:19:21.822Z,4.15
2022-10-27T01:21:56.009Z,4.45
2022-10-27T01:24:41.801Z,4.05
2022-10-27T01:27:20.726Z,3.83
2022-10-27T01:29:53.355Z,4.07
2022-10-27T01:32:26.327Z,4.28
2022-10-27T01:35:00.351Z,4.25
2022-10-27T01:37:38.682Z,3.53
2022-10-27T01:40:08.818Z,3.72
2022-10-27T01:42:45.341Z,3.17
2022-10-27T01:45:14.345Z,3.67
2022-10-27T01:47:41.884Z,4.22
2022-10-27T01:50:12.620Z,3.88
2022-10-27T01:52:46.955Z,3.88
2022-10-27T01:55:17.227Z,3.42
2022-10-27T01:57:46.864Z,3.13
2022-10-27T02:00:14.042Z,4.20
2022-10-27T02:03:03.849Z,4.07
2022-10-27T02:05:36.273Z,3.60
2022-10-27T02:08:02.670Z,3.85
2022-10-27T02:10:32.554Z,3.33
2022-10-27T02:13:00.010Z,4.10
2022-10-27T02:15:39.386Z,2.95
2022-10-27T02:18:13.695Z,4.10
2022-10-27T02:20:41.698Z,3.13
2022-10-27T02:23:10.162Z,3.35
2022-10-27T02:25:41.002Z,3.55
2022-10-27T02:28:08.245Z,3.30
2022-10-27T02:30:35.087Z,3.10
2022-10-27T02:33:04.985Z,4.00
2022-10-27T02:35:31.438Z,3.97
2022-10-27T02:37:59.520Z,3.72
2022-10-27T02:40:26.096Z,4.00
2022-10-27T02:42:53.950Z,3.40
2022-10-27T02:45:21.471Z,3.90
2022-10-27T02:47:49.451Z,3.67
2022-10-27T02:50:15.937Z,4.07
2022-10-27T02:52:46.597Z,4.30
2022-10-27T02:55:15.889Z,3.60
2022-10-27T02:57:42.603Z,3.67
2022-10-27T03:00:09.756Z,4.10
2022-10-27T03:02:36.172Z,4.20
2022-10-27T03:05:03.541Z,3.75
2022-10-27T03:07:30.515Z,4.22
2022-10-27T03:09:56.933Z,3.92
2022-10-27T03:12:23.354Z,4.50
2022-10-27T03:14:50.382Z,3.80
2022-10-27T03:17:18.064Z,3.60
2022-10-27T03:19:44.496Z,4.03
2022-10-27T03:22:10.954Z,3.50
2022-10-27T03:24:37.661Z,4.32
2022-10-27T03:27:06.151Z,3.60
2022-10-27T03:29:32.697Z,3.50
2022-10-27T03:32:01.469Z,4.10
2022-10-27T03:34:28.584Z,3.83
2022-10-27T03:36:55.027Z,3.80
2022-10-27T03:39:25.650Z,3.58
2022-10-27T03:41:52.081Z,3.70
2022-10-27T03:44:18.650Z,3.45
2022-10-27T03:46:45.440Z,3.40
2022-10-27T03:49:12.770Z,3.47
2022-10-27T03:51:39.213Z,3.42
2022-10-27T03:54:05.677Z,3.63
2022-10-27T03:56:32.138Z,3.58
2022-10-27T03:58:58.568Z,3.38
2022-10-27T04:01:25.577Z,3.75
2022-10-27T04:03:52.331Z,3.75
2022-10-27T04:06:18.777Z,3.28
2022-10-27T04:08:45.216Z,3.67
2022-10-27T04:11:12.041Z,3.70
2022-10-27T04:13:40.886Z,4.20
2022-10-27T04:16:08.968Z,3.92
2022-10-27T04:18:37.636Z,4.50
2022-10-27T04:21:06.234Z,4.18
2022-10-27T04:23:32.903Z,3.75
2022-10-27T04:25:59.418Z,4.35
2022-10-27T04:28:25.826Z,3.90
2022-10-27T04:30:52.245Z,3.88
2022-10-27T04:33:18.760Z,3.90
2022-10-27T04:35:45.118Z,3.63
2022-10-27T04:38:11.497Z,3.83
2022-10-27T04:40:37.908Z,3.55
2022-10-27T04:43:04.456Z,3.85
2022-10-27T04:45:30.901Z,3.83
2022-10-27T04:47:57.432Z,4.47
2022-10-27T04:50:23.857Z,4.55
2022-10-27T04:52:55.242Z,4.47
2022-10-27T04:55:21.774Z,4.63
2022-10-27T04:57:48.186Z,4.43
2022-10-27T05:00:15.679Z,3.78
2022-10-27T05:02:42.090Z,3.92
2022-10-27T05:05:08.612Z,3.72
2022-10-27T05:07:35.025Z,4.28
2022-10-27T05:10:01.441Z,3.70
2022-10-27T05:12:27.880Z,3.65
2022-10-27T05:14:54.297Z,3.75
2022-10-27T05:19:47.015Z,3.88
2022-10-27T05:22:13.438Z,4.50
2022-10-27T05:24:40.368Z,3.63
2022-10-27T05:27:07.145Z,4.15
2022-10-27T05:29:33.755Z,3.80
2022-10-27T05:32:00.161Z,4.00
2022-10-27T05:34:26.798Z,3.72
2022-10-27T05:36:53.165Z,3.83
2022-10-27T05:39:19.559Z,4.18
2022-10-27T05:41:45.911Z,3.80
2022-10-27T05:44:12.382Z,3.80
2022-10-27T05:46:38.774Z,4.70
2022-10-27T05:49:05.220Z,5.00
2022-10-27T05:51:31.664Z,4.50
2022-10-27T05:53:58.144Z,4.13
2022-10-27T05:56:24.615Z,4.25
2022-10-27T05:58:51.034Z,5.07
2022-10-27T06:01:18.220Z,4.40
2022-10-27T06:03:44.679Z,4.60
2022-10-27T06:06:11.116Z,4.47
2022-10-27T06:08:37.569Z,5.05
2022-10-27T06:11:04.322Z,5.78
2022-10-27T06:13:30.771Z,5.72
2022-10-27T06:15:58.074Z,5.03
2022-10-27T06:18:24.493Z,4.80
2022-10-27T06:20:50.900Z,5.32
2022-10-27T06:23:17.372Z,4.57
2022-10-27T06:25:44.885Z,5.38
2022-10-27T06:28:11.359Z,4.90
2022-10-27T06:30:37.844Z,5.20
2022-10-27T06:33:04.253Z,5.25
2022-10-27T06:35:31.893Z,4.22
2022-10-27T06:37:58.305Z,4.97
2022-10-27T06:40:24.763Z,5.93
2022-10-27T06:43:08.095Z,4.18
2022-10-27T06:45:36.048Z,4.72
2022-10-27T06:48:02.439Z,4.32
2022-10-27T06:50:29.261Z,4.55
2022-10-27T06:52:56.041Z,5.93
2022-10-27T06:55:22.500Z,5.63
2022-10-27T06:57:49.072Z,5.55
2022-10-27T07:00:15.991Z,5.68
2022-10-27T07:02:42.523Z,5.82
2022-10-27T07:05:09.167Z,5.50
2022-10-27T07:07:36.430Z,5.00
2022-10-27T07:10:03.370Z,5.75
2022-10-27T07:12:30.021Z,5.55
2022-10-27T07:14:58.890Z,4.90
2022-10-27T07:17:25.311Z,4.70
2022-10-27T07:19:51.818Z,4.75
2022-10-27T07:22:18.312Z,4.60
2022-10-27T07:24:44.771Z,4.80
2022-10-27T07:27:11.291Z,4.03
2022-10-27T07:29:37.750Z,4.07
2022-10-27T07:32:13.028Z,4.00
2022-10-27T07:34:41.776Z,3.90
2022-10-27T07:37:08.470Z,4.15
2022-10-27T07:39:35.957Z,3.42
2022-10-27T07:42:02.464Z,3.40
2022-10-27T07:44:28.983Z,3.28
2022-10-27T07:46:55.443Z,3.30
2022-10-27T07:49:23.024Z,3.22
2022-10-27T07:51:50.996Z,3.47
2022-10-27T07:54:17.574Z,3.03
2022-10-27T07:56:44.135Z,2.50
2022-10-27T08:01:41.531Z,2.95
2022-10-27T08:04:09.611Z,2.72
2022-10-27T08:06:36.304Z,3.08
2022-10-27T08:09:05.952Z,2.78
2022-10-27T08:11:34.227Z,2.70
2022-10-27T08:14:00.887Z,2.40
2022-10-27T08:16:27.357Z,2.40
2022-10-27T08:18:53.987Z,2.38
2022-10-27T08:21:21.681Z,2.63
2022-10-27T08:23:50.502Z,2.10
2022-10-27T08:26:16.993Z,2.33
2022-10-27T08:28:43.447Z,2.55
2022-10-27T08:31:10.076Z,2.13
2022-10-27T08:33:36.543Z,1.98
2022-10-27T08:36:03.026Z,2.10
2022-10-27T08:38:32.865Z,1.80
2022-10-27T08:41:03.912Z,1.70
2022-10-27T08:43:49.178Z,2.03
2022-10-27T08:46:26.037Z,1.73
2022-10-27T08:48:57.819Z,2.58
2022-10-27T08:53:56.177Z,2.42
2022-10-27T08:56:23.642Z,2.75
2022-10-27T08:58:50.249Z,2.20
2022-10-27T09:01:25.655Z,2.55
2022-10-27T09:04:07.571Z,1.77
2022-10-27T09:06:36.448Z,2.42
2022-10-27T09:09:02.917Z,2.20
2022-10-27T09:11:47.817Z,1.60
2022-10-27T09:14:26.129Z,1.80
2022-10-27T09:17:14.275Z,1.70
2022-10-27T09:19:46.110Z,1.63
2022-10-27T09:22:15.309Z,2.05
2022-10-27T09:24:41.818Z,2.08
2022-10-27T09:27:13.428Z,2.00
2022-10-27T09:29:41.341Z,2.28
2022-10-27T09:32:16.153Z,2.20
2022-10-27T09:34:52.624Z,2.13
2022-10-27T09:37:20.266Z,2.40
2022-10-27T09:39:48.140Z,2.35
2022-10-27T09:42:15.423Z,1.80
2022-10-27T09:44:46.870Z,1.92
2022-10-27T09:47:13.406Z,2.08
2022-10-27T09:49:40.784Z,1.70
2022-10-27T09:52:12.566Z,2.25
2022-10-27T09:54:42.788Z,2.08
2022-10-27T09:57:15.523Z,1.90
2022-10-27T09:59:42.281Z,2.13
2022-10-27T10:02:28.094Z,2.38
2022-10-27T10:04:55.020Z,2.00
2022-10-27T10:07:27.877Z,2.80
2022-10-27T10:10:03.851Z,2.22
2022-10-27T10:12:30.305Z,2.22
2022-10-27T10:15:12.138Z,2.35
2022-10-27T10:17:40.977Z,1.48
2022-10-27T10:20:08.774Z,2.20
2022-10-27T10:22:40.104Z,1.98
2022-10-27T10:25:18.828Z,2.38
2022-10-27T10:27:47.353Z,1.90
2022-10-27T10:30:20.615Z,1.95
2022-10-27T10:32:52.139Z,1.60
2022-10-27T10:35:37.497Z,1.70
2022-10-27T10:38:23.963Z,2.00
2022-10-27T10:40:56.587Z,1.85
2022-10-27T10:43:23.062Z,1.95
2022-10-27T10:45:52.603Z,1.65
2022-10-27T10:48:24.809Z,1.77
2022-10-27T10:50:54.431Z,1.77
2022-10-27T10:53:30.859Z,1.65
2022-10-27T10:56:04.484Z,2.13
2022-10-27T10:58:32.902Z,1.80
2022-10-27T11:01:03.756Z,2.00
2022-10-27T11:03:33.168Z,2.00
2022-10-27T11:06:01.538Z,1.90
2022-10-27T11:08:41.162Z,2.17
2022-10-27T11:11:13.367Z,1.80
2022-10-27T11:13:43.553Z,1.70
2022-10-27T11:16:10.945Z,1.92
2022-10-27T11:18:42.164Z,1.58
2022-10-27T11:21:12.894Z,1.63
2022-10-27T11:23:45.448Z,1.70
2022-10-27T11:26:12.879Z,1.70
2022-10-27T11:28:45.454Z,1.90
2022-10-27T11:31:19.039Z,2.08
2022-10-27T11:33:49.845Z,1.80
2022-10-27T11:36:19.508Z,1.95
2022-10-27T11:38:45.968Z,2.40
2022-10-27T11:41:16.683Z,2.10
2022-10-27T11:43:50.572Z,2.10
2022-10-27T11:46:29.741Z,2.20
2022-10-27T11:49:10.123Z,2.17
2022-10-27T11:51:54.928Z,2.17
2022-10-27T11:54:21.700Z,1.92
2022-10-27T11:57:03.913Z,2.28
2022-10-27T12:00:10.366Z,2.03
2022-10-27T12:02:57.968Z,1.95
2022-10-27T12:05:43.058Z,1.85
2022-10-27T12:08:12.517Z,2.10
2022-10-27T12:10:57.540Z,1.90
2022-10-27T12:13:30.289Z,2.40
2022-10-27T12:16:11.145Z,2.40
2022-10-27T12:18:48.149Z,2.10
2022-10-27T12:21:22.274Z,2.47
2022-10-27T12:24:09.005Z,2.45
2022-10-27T12:26:39.368Z,2.47
2022-10-27T12:29:07.045Z,1.92
2022-10-27T12:31:34.819Z,2.28
2022-10-27T12:34:02.038Z,2.20
2022-10-27T12:36:36.338Z,2.53
2022-10-27T12:39:14.690Z,2.30
2022-10-27T12:41:53.379Z,1.90
2022-10-27T12:44:42.555Z,2.25
2022-10-27T12:47:15.877Z,2.28
2022-10-27T12:49:45.150Z,2.33
2022-10-27T12:52:26.088Z,2.63
2022-10-27T12:55:01.773Z,2.10
2022-10-27T12:57:31.662Z,2.55
2022-10-27T13:00:15.587Z,2.08
2022-10-27T13:02:44.994Z,2.05
2022-10-27T13:05:11.516Z,2.35
2022-10-27T13:07:57.489Z,2.35
2022-10-27T13:10:30.223Z,2.15
2022-10-27T13:13:10.580Z,2.20
2022-10-27T13:15:45.712Z,2.92
2022-10-27T13:18:18.343Z,2.45
2022-10-27T13:20:49.377Z,2.42
2022-10-27T13:23:23.058Z,2.42
2022-10-27T13:25:52.715Z,3.10
2022-10-27T13:28:24.020Z,2.97
2022-10-27T13:30:52.891Z,2.85
2022-10-27T13:33:38.626Z,2.58
2022-10-27T13:36:21.400Z,2.67
2022-10-27T13:38:48.690Z,3.05
2022-10-27T13:41:33.956Z,2.50
2022-10-27T13:44:00.516Z,2.63
2022-10-27T13:46:45.801Z,2.63
2022-10-27T13:49:32.196Z,2.63
2022-10-27T13:52:23.054Z,3.00
2022-10-27T13:54:51.250Z,2.60
2022-10-27T13:57:33.217Z,2.80
2022-10-27T14:00:04.915Z,2.67
2022-10-27T14:02:49.192Z,2.83
2022-10-27T14:05:25.522Z,2.70
2022-10-27T14:07:52.819Z,2.70
2022-10-27T14:10:20.318Z,2.30
2022-10-27T14:12:47.066Z,2.63
2022-10-27T14:15:23.019Z,2.75
2022-10-27T14:17:49.989Z,3.30
2022-10-27T14:20:35.490Z,3.10
2022-10-27T14:23:07.751Z,2.95
2022-10-27T14:25:34.268Z,3.17
2022-10-27T14:28:03.689Z,3.17
2022-10-27T14:30:30.685Z,3.22
2022-10-27T14:32:57.204Z,3.38
2022-10-27T14:35:26.184Z,3.67
2022-10-27T14:37:57.302Z,3.10
2022-10-27T14:40:30.418Z,3.58
2022-10-27T14:42:57.234Z,3.15
2022-10-27T14:45:23.929Z,3.30
2022-10-27T14:48:00.955Z,3.40
2022-10-27T14:50:31.853Z,3.08
2022-10-27T14:52:59.940Z,3.30
2022-10-27T14:55:29.345Z,3.72
2022-10-27T14:57:56.089Z,3.13
2022-10-27T15:00:23.019Z,3.58
2022-10-27T15:02:50.165Z,3.35
2022-10-27T15:05:24.606Z,3.75
2022-10-27T15:07:56.247Z,5.57
2022-10-27T15:10:23.420Z,4.85
2022-10-27T15:12:55.822Z,4.50
2022-10-27T15:15:26.048Z,7.22
2022-10-27T15:17:52.922Z,5.15
2022-10-27T15:20:19.690Z,3.20
2022-10-27T15:22:47.576Z,3.33
2022-10-27T15:25:15.505Z,3.75
2022-10-27T15:27:43.202Z,3.42
2022-10-27T15:30:14.110Z,3.80
2022-10-27T15:32:41.370Z,3.33
2022-10-27T15:35:26.493Z,2.83
2022-10-27T15:37:53.587Z,3.22
2022-10-27T15:40:22.588Z,3.67
2022-10-27T15:42:49.410Z,3.47
2022-10-27T15:45:22.207Z,3.15
2022-10-27T15:47:49.257Z,3.50
2022-10-27T15:50:24.131Z,3.67
2022-10-27T15:52:52.147Z,3.95
2022-10-27T15:55:23.177Z,3.75
2022-10-27T15:57:49.981Z,3.33
2022-10-27T16:00:28.346Z,3.80
2022-10-27T16:02:58.451Z,3.20
2022-10-27T16:05:31.238Z,3.88
2022-10-27T16:07:58.116Z,3.75
2022-10-27T16:10:25.491Z,3.50
2022-10-27T16:12:52.299Z,3.50
2022-10-27T16:15:23.261Z,3.03
2022-10-27T16:17:54.689Z,3.78
2022-10-27T16:20:24.783Z,3.80
2022-10-27T16:22:51.768Z,3.33
2022-10-27T16:25:19.097Z,3.17
2022-10-27T16:27:45.902Z,3.55
2022-10-27T16:30:30.392Z,3.50
2022-10-27T16:33:01.079Z,3.65
2022-10-27T16:35:27.547Z,3.53
2022-10-27T16:37:53.928Z,3.65
2022-10-27T16:40:20.418Z,3.60
2022-10-27T16:42:48.922Z,3.42
2022-10-27T16:45:16.507Z,3.95
2022-10-27T16:47:43.252Z,3.22
2022-10-27T16:50:10.238Z,3.60
2022-10-27T16:52:36.672Z,3.33
2022-10-27T16:55:06.155Z,3.33
2022-10-27T16:57:32.594Z,3.28
2022-10-27T16:59:58.978Z,3.75
2022-10-27T17:02:25.532Z,3.80
2022-10-27T17:04:52.206Z,3.60
2022-10-27T17:07:18.656Z,3.95
2022-10-27T17:09:45.055Z,3.40
2022-10-27T17:12:11.460Z,3.60
2022-10-27T17:14:37.893Z,3.90
2022-10-27T17:17:04.289Z,3.70
2022-10-27T17:19:30.748Z,3.90
2022-10-27T17:21:57.166Z,3.70
2022-10-27T17:24:23.622Z,3.95
2022-10-27T17:26:50.032Z,4.13
2022-10-27T17:29:16.505Z,3.97
2022-10-27T17:31:42.941Z,4.20
2022-10-27T17:34:09.484Z,4.22
2022-10-27T17:36:35.930Z,3.90
2022-10-27T17:39:02.355Z,4.70
2022-10-27T17:41:28.913Z,4.32
2022-10-27T17:43:55.547Z,4.63
2022-10-27T17:46:22.661Z,4.05
2022-10-27T17:48:51.577Z,4.65
2022-10-27T17:51:25.599Z,4.32
2022-10-27T17:53:52.635Z,4.80
2022-10-27T17:56:20.603Z,4.28
2022-10-27T17:58:47.910Z,4.10
2022-10-27T18:01:16.150Z,4.43
2022-10-27T18:03:43.547Z,4.50
2022-10-27T18:06:11.239Z,4.50
2022-10-27T18:08:37.934Z,4.57
2022-10-27T18:11:04.427Z,4.50
2022-10-27T18:13:31.864Z,4.82
2022-10-27T18:15:58.418Z,5.25
2022-10-27T18:18:24.948Z,4.60
2022-10-27T18:20:51.367Z,4.82
2022-10-27T18:23:18.068Z,4.97
2022-10-27T18:25:44.483Z,5.10
2022-10-27T18:28:11.022Z,4.63
2022-10-27T18:30:37.465Z,4.70
2022-10-27T18:33:03.977Z,4.15
2022-10-27T18:35:30.511Z,4.88
2022-10-27T18:37:56.989Z,5.03
2022-10-27T18:40:23.466Z,4.05
2022-10-27T18:42:50.408Z,4.53
2022-10-27T18:45:17.181Z,4.68
2022-10-27T18:47:44.712Z,5.18
2022-10-27T18:50:11.261Z,5.20
2022-10-27T18:52:37.986Z,4.43
2022-10-27T18:55:04.657Z,5.07
2022-10-27T18:57:31.111Z,5.03
2022-10-27T18:59:57.540Z,4.40
2022-10-27T19:02:24.126Z,4.75
2022-10-27T19:04:50.721Z,4.70
2022-10-27T19:07:17.205Z,4.07
2022-10-27T19:09:43.766Z,4.32
2022-10-27T19:12:11.337Z,4.78
2022-10-27T19:14:37.774Z,4.72
2022-10-27T19:17:04.279Z,4.53
2022-10-27T19:19:30.712Z,4.60
2022-10-27T19:21:57.144Z,4.72
2022-10-27T19:24:23.588Z,4.78
2022-10-27T19:26:50.080Z,4.72
2022-10-27T19:29:16.519Z,5.05
2022-10-27T19:31:43.002Z,4.97
2022-10-27T19:34:10.369Z,5.03
2022-10-27T19:36:36.989Z,4.75
2022-10-27T19:39:05.755Z,4.63
2022-10-27T19:41:33.109Z,5.38
2022-10-27T19:44:00.278Z,4.93
2022-10-27T19:46:27.239Z,5.30
2022-10-27T19:48:54.762Z,5.43
2022-10-27T19:51:22.978Z,5.80
2022-10-27T19:53:50.050Z,6.03
2022-10-27T19:56:17.147Z,5.35
2022-10-27T19:58:43.929Z,5.38
2022-10-27T20:01:14.608Z,5.50
2022-10-27T20:03:41.613Z,5.50
2022-10-27T20:06:09.139Z,5.47
2022-10-27T20:08:39.726Z,5.35
2022-10-27T20:11:10.657Z,5.10
2022-10-27T20:13:37.625Z,6.32
2022-10-27T20:16:04.879Z,5.80
2022-10-27T20:18:31.922Z,5.68
2022-10-27T20:20:58.363Z,5.90
2022-10-27T20:23:24.852Z,6.47
2022-10-27T20:26:16.994Z,5.68
2022-10-27T20:28:44.833Z,6.03
2022-10-27T20:31:12.553Z,5.93
2022-10-27T20:33:39.010Z,6.07
2022-10-27T20:36:07.059Z,5.57
2022-10-27T20:38:34.503Z,5.35
2022-10-27T20:41:06.698Z,6.03
2022-10-27T20:43:33.996Z,5.30
2022-10-27T20:46:00.709Z,4.97
2022-10-27T20:48:28.070Z,5.15
2022-10-27T20:50:55.657Z,5.38
2022-10-27T20:53:22.168Z,5.47
2022-10-27T20:55:48.575Z,4.80
2022-10-27T20:58:15.013Z,5.80
2022-10-27T21:00:41.421Z,5.13
2022-10-27T21:03:07.956Z,5.32
2022-10-27T21:05:34.421Z,5.50
2022-10-27T21:08:00.958Z,5.22
2022-10-27T21:10:27.927Z,5.30
2022-10-27T21:12:54.475Z,5.32
2022-10-27T21:15:20.932Z,5.90
2022-10-27T21:17:47.374Z,6.20
2022-10-27T21:20:13.863Z,5.13
2022-10-27T21:22:40.311Z,4.90
2022-10-27T21:25:07.002Z,4.40
2022-10-27T21:27:33.430Z,5.38
2022-10-27T21:29:59.872Z,5.65
2022-10-27T21:32:26.354Z,5.70
2022-10-27T21:34:52.785Z,6.57
2022-10-27T21:37:19.266Z,6.22
2022-10-27T21:39:45.720Z,5.22
2022-10-27T21:42:12.200Z,5.93
2022-10-27T21:44:38.657Z,5.53
2022-10-27T21:47:05.215Z,5.90
2022-10-27T21:49:31.669Z,6.00
2022-10-27T21:51:58.085Z,6.15
2022-10-27T21:54:24.548Z,5.63
2022-10-27T21:56:51.094Z,5.00
2022-10-27T21:59:17.557Z,5.50
2022-10-27T22:01:44.184Z,5.10
2022-10-27T22:04:10.815Z,5.40
2022-10-27T22:06:37.237Z,6.43
2022-10-27T22:09:03.786Z,5.43
2022-10-27T22:11:31.494Z,6.20
2022-10-27T22:13:57.997Z,5.80
2022-10-27T22:16:25.601Z,6.45
2022-10-27T22:18:53.419Z,5.65
2022-10-27T22:21:19.947Z,5.70
2022-10-27T22:23:46.476Z,5.72
2022-10-27T22:26:17.855Z,5.75
2022-10-27T22:28:44.965Z,6.28
2022-10-27T22:31:12.940Z,5.82
2022-10-27T22:33:43.270Z,6.05
2022-10-27T22:36:13.017Z,5.72
2022-10-27T22:38:39.515Z,6.35
2022-10-27T22:41:10.382Z,6.50
2022-10-27T22:43:37.050Z,6.25
2022-10-27T22:46:04.179Z,6.05
2022-10-27T22:48:31.311Z,6.07
2022-10-27T22:51:01.598Z,5.68
2022-10-27T22:53:31.897Z,6.13
2022-10-27T22:56:02.839Z,6.07
2022-10-27T22:58:29.325Z,5.70
2022-10-27T23:01:02.609Z,5.78
2022-10-27T23:03:29.083Z,6.15
2022-10-27T23:05:55.578Z,5.78
2022-10-27T23:08:22.038Z,5.38
2022-10-27T23:10:55.696Z,5.45
2022-10-27T23:13:22.547Z,4.75
2022-10-27T23:15:59.233Z,5.28
2022-10-27T23:18:26.150Z,5.00
2022-10-27T23:20:56.667Z,5.63
2022-10-27T23:23:23.611Z,5.32
2022-10-27T23:25:50.235Z,5.57
2022-10-27T23:28:16.678Z,5.47
2022-10-27T23:30:43.674Z,5.95
2022-10-27T23:33:10.145Z,5.80
2022-10-27T23:35:36.621Z,6.20
2022-10-27T23:38:03.054Z,5.95
2022-10-27T23:40:29.655Z,6.38
2022-10-27T23:42:56.224Z,6.22
2022-10-27T23:45:22.830Z,5.68
2022-10-27T23:47:52.949Z,5.55
2022-10-27T23:50:19.853Z,5.15
2022-10-27T23:52:46.423Z,6.13
2022-10-27T23:55:12.876Z,5.38
2022-10-27T23:57:39.334Z,5.97
